Time;durP1;ratioP1;P1;durP2;ratioP2;P2;SDS_P1;SDS_P2;PMS_P1;PMS_P2;Temp;Humidity;BMP_temperature;BMP_pressure;BME280_temperature;BME280_humidity;BME280_pressure;Samples;Min_cycle;Max_cycle;Signal;HPM_P1;HPM_P2
2021/05/11 00:01:17;;;;;;;0.50;0.38;;;;;;;25.16;23.90;99187.28;5115061;28;20485;-57
2021/05/11 00:03:44;;;;;;;2.53;0.77;;;;;;;25.15;23.93;99185.63;5114717;28;20023;-57
2021/05/11 00:06:11;;;;;;;0.85;0.82;;;;;;;25.16;24.02;99176.03;5114742;28;20489;-57
2021/05/11 00:08:37;;;;;;;0.50;0.30;;;;;;;25.17;23.77;99181.34;5096359;28;20115;-56
2021/05/11 00:11:03;;;;;;;1.52;1.00;;;;;;;25.19;23.66;99190.28;5114648;28;20039;-55
2021/05/11 00:13:29;;;;;;;1.02;0.82;;;;;;;25.21;23.68;99184.34;5114652;28;20032;-54
2021/05/11 00:15:55;;;;;;;1.23;0.95;;;;;;;25.23;23.95;99187.66;5115101;28;20380;-55
2021/05/11 00:18:21;;;;;;;0.68;0.68;;;;;;;25.24;23.57;99182.88;5096381;28;20038;-55
2021/05/11 00:20:47;;;;;;;0.40;0.40;;;;;;;25.26;23.65;99187.00;5096030;28;20070;-54
2021/05/11 00:23:13;;;;;;;1.00;0.93;;;;;;;25.28;23.70;99183.84;5114574;28;20027;-57
2021/05/11 00:25:39;;;;;;;1.40;0.80;;;;;;;25.31;23.75;99184.09;5114150;28;20031;-55
2021/05/11 00:28:05;;;;;;;0.70;0.70;;;;;;;25.33;23.78;99181.78;5114192;28;20063;-55
2021/05/11 00:30:31;;;;;;;1.42;1.33;;;;;;;25.34;23.54;99177.81;5113381;28;20066;-57
2021/05/11 00:32:56;;;;;;;1.95;0.80;;;;;;;25.38;23.61;99179.97;5114486;28;20059;-57
2021/05/11 00:35:22;;;;;;;0.82;0.73;;;;;;;25.42;23.38;99190.25;5114241;28;20031;-57
2021/05/11 00:37:48;;;;;;;0.93;0.57;;;;;;;25.50;23.56;99186.66;5095823;28;20512;-56
2021/05/11 00:40:14;;;;;;;4.47;0.50;;;;;;;25.61;23.67;99189.16;5095291;28;20019;-56
2021/05/11 00:42:39;;;;;;;2.97;0.45;;;;;;;25.73;23.33;99194.97;5114539;28;20027;-57
2021/05/11 00:45:06;;;;;;;1.23;0.77;;;;;;;25.89;23.39;99184.09;5113561;28;20527;-56
2021/05/11 00:47:32;;;;;;;2.58;1.30;;;;;;;26.07;22.86;99193.41;5114121;28;20043;-54
2021/05/11 00:49:59;;;;;;;1.17;0.85;;;;;;;26.23;23.18;99190.94;5113878;28;20028;-53
2021/05/11 00:52:25;;;;;;;1.80;1.10;;;;;;;26.38;22.81;99198.06;5096249;28;20103;-54
2021/05/11 00:54:51;;;;;;;0.60;0.60;;;;;;;26.55;22.50;99192.44;5095682;28;20058;-54
2021/05/11 00:57:17;;;;;;;0.88;0.88;;;;;;;26.71;22.66;99194.78;5114147;28;20488;-52
2021/05/11 00:59:43;;;;;;;0.57;0.57;;;;;;;26.86;22.16;99194.25;5113503;28;20035;-54
2021/05/11 01:02:10;;;;;;;1.00;0.93;;;;;;;27.01;22.23;99192.06;5113837;28;20032;-54
2021/05/11 01:04:37;;;;;;;0.73;0.52;;;;;;;27.14;22.15;99196.66;5113558;28;20035;-55
2021/05/11 01:07:03;;;;;;;0.77;0.77;;;;;;;27.26;22.02;99199.59;5113914;28;20074;-54
2021/05/11 01:09:30;;;;;;;1.55;1.40;;;;;;;27.41;22.33;99200.25;5113466;28;20028;-51
2021/05/11 01:11:57;;;;;;;1.55;1.02;;;;;;;27.42;22.08;99199.91;5113930;28;20032;-55
2021/05/11 01:14:27;;;;;;;1.95;1.00;;;;;;;27.30;21.99;99205.41;5113411;28;20023;-54
2021/05/11 01:17:01;;;;;;;8.98;2.00;;;;;;;27.17;22.13;99195.16;5095119;28;20523;-54
2021/05/11 01:43:49;;;;;;;0.70;0.70;;;;;;;26.51;22.51;99199.88;5030646;28;20287;-53
2021/05/11 01:49:48;;;;;;;1.13;1.02;;;;;;;26.02;22.52;99207.66;4933441;29;20434;-49
2021/05/11 02:24:18;;;;;;;1.67;0.80;;;;;;;24.07;23.44;99207.94;4987919;28;20487;-55
2021/05/11 02:26:44;;;;;;;0.93;0.70;;;;;;;24.03;23.20;99212.50;4972845;28;20049;-55
2021/05/11 02:29:10;;;;;;;1.98;1.20;;;;;;;24.03;23.39;99216.16;4984174;28;20038;-51
2021/05/11 02:31:36;;;;;;;3.00;1.55;;;;;;;24.12;23.18;99219.88;4990879;28;20030;-52
2021/05/11 02:34:02;;;;;;;1.30;0.88;;;;;;;24.38;22.70;99219.28;5006947;28;20499;-53
2021/05/11 02:36:27;;;;;;;1.33;1.23;;;;;;;24.65;22.28;99217.56;5050181;28;20108;-51
2021/05/11 02:38:53;;;;;;;1.00;1.00;;;;;;;24.70;22.36;99220.22;5049499;28;20051;-52
2021/05/11 02:41:36;;;;;;;0.90;0.88;;;;;;;24.47;22.23;99211.75;5050105;28;20500;-51
2021/05/11 02:44:02;;;;;;;7.18;1.05;;;;;;;24.20;22.72;99223.91;5030289;28;20037;-51
2021/05/11 02:46:28;;;;;;;0.70;0.70;;;;;;;24.24;22.76;99229.72;5066987;28;20048;-51
2021/05/11 02:48:56;;;;;;;2.05;1.80;;;;;;;24.43;22.45;99223.94;5071931;28;20025;-54
2021/05/11 02:51:21;;;;;;;6.95;1.20;;;;;;;24.60;22.22;99226.09;5071602;28;20025;-54
2021/05/11 02:53:47;;;;;;;2.03;1.35;;;;;;;24.72;22.11;99222.69;5073870;28;20029;-54
2021/05/11 02:56:13;;;;;;;2.88;1.60;;;;;;;24.94;21.93;99230.28;5057448;28;20032;-54
2021/05/11 02:58:39;;;;;;;1.00;0.93;;;;;;;25.17;22.01;99226.28;5075696;28;20101;-55
2021/05/11 03:01:04;;;;;;;1.13;0.68;;;;;;;25.44;21.57;99224.50;5075580;28;20035;-51
2021/05/11 03:03:30;;;;;;;1.08;1.08;;;;;;;25.74;21.25;99221.94;5075929;28;20073;-55
2021/05/11 03:05:57;;;;;;;1.55;0.90;;;;;;;26.05;21.36;99224.69;5075752;28;20397;-55
2021/05/11 03:08:23;;;;;;;1.33;1.23;;;;;;;26.40;21.15;99224.75;5075238;28;20028;-55
2021/05/11 03:10:49;;;;;;;0.57;0.57;;;;;;;26.64;20.92;99233.84;5075420;28;20181;-55
2021/05/11 03:13:15;;;;;;;1.17;0.95;;;;;;;26.81;21.01;99239.50;5057202;28;20037;-55
2021/05/11 03:15:40;;;;;;;0.85;0.85;;;;;;;26.98;20.66;99226.56;5075039;28;20045;-55
2021/05/11 03:18:06;;;;;;;3.42;1.23;;;;;;;27.13;20.72;99228.81;5075539;28;20055;-53
2021/05/11 03:20:32;;;;;;;1.38;0.55;;;;;;;27.27;20.73;99223.00;5075216;28;20116;-55
2021/05/11 03:22:57;;;;;;;1.50;1.10;;;;;;;27.44;20.66;99233.41;5074922;28;20070;-55
2021/05/11 03:25:23;;;;;;;0.77;0.77;;;;;;;27.64;20.59;99237.47;5056865;28;20059;-55
2021/05/11 03:27:49;;;;;;;0.77;0.63;;;;;;;27.81;20.72;99230.91;5056930;28;20032;-56
2021/05/11 03:30:15;;;;;;;1.05;0.90;;;;;;;27.89;20.79;99223.56;5074774;28;20029;-54
2021/05/11 03:32:41;;;;;;;0.60;0.60;;;;;;;27.99;20.89;99228.00;5075284;28;20036;-54
2021/05/11 03:35:07;;;;;;;1.10;1.00;;;;;;;28.08;20.60;99221.16;5075035;28;20033;-55
2021/05/11 03:37:32;;;;;;;1.73;1.38;;;;;;;28.16;20.41;99227.09;5075181;28;20028;-53
2021/05/11 03:39:58;;;;;;;1.65;1.25;;;;;;;28.18;20.47;99233.22;5074609;28;20131;-53
2021/05/11 03:42:29;;;;;;;5.22;1.10;;;;;;;28.27;20.71;99231.16;5075049;28;20040;-54
2021/05/11 03:44:58;;;;;;;2.15;1.67;;;;;;;28.35;20.73;99232.28;5074971;28;20461;-54
2021/05/11 03:47:25;;;;;;;2.10;1.27;;;;;;;28.38;20.45;99225.94;5074388;28;20094;-54
2021/05/11 03:49:51;;;;;;;0.55;0.55;;;;;;;28.46;20.62;99227.84;5074470;28;20039;-54
2021/05/11 03:52:17;;;;;;;1.30;0.75;;;;;;;28.58;20.40;99230.75;5074892;28;20032;-54
2021/05/11 03:54:42;;;;;;;1.13;0.60;;;;;;;28.74;20.47;99230.97;5074773;28;20028;-54
2021/05/11 03:57:08;;;;;;;0.82;0.80;;;;;;;28.77;20.14;99235.09;5074857;28;20028;-54
2021/05/11 03:59:37;;;;;;;1.23;0.88;;;;;;;28.86;20.14;99230.19;5074528;28;20513;-52
2021/05/11 04:02:06;;;;;;;1.95;1.35;;;;;;;28.96;20.44;99228.91;5074168;28;20032;-53
2021/05/11 04:04:32;;;;;;;0.85;0.80;;;;;;;29.10;20.13;99228.63;5074321;28;20029;-55
2021/05/11 04:06:58;;;;;;;1.33;1.20;;;;;;;29.24;20.14;99232.00;5074105;28;20553;-55
2021/05/11 04:09:32;;;;;;;1.05;0.95;;;;;;;29.38;19.98;99239.31;5074026;28;20537;-55
2021/05/11 04:17:08;;;;;;;1.45;0.77;;;;;;;29.64;19.52;99225.69;5073986;28;20035;-54
2021/05/11 04:19:35;;;;;;;0.55;0.55;;;;;;;29.56;19.67;99235.09;5074478;28;20110;-54
2021/05/11 04:22:01;;;;;;;1.58;0.95;;;;;;;29.39;19.72;99240.97;5073854;28;20048;-55
2021/05/11 04:24:28;;;;;;;1.35;0.98;;;;;;;29.15;20.22;99236.88;5073622;28;20032;-52
2021/05/11 04:26:54;;;;;;;4.00;1.08;;;;;;;28.89;20.07;99242.81;5073610;28;20036;-54
2021/05/11 04:29:20;;;;;;;0.60;0.60;;;;;;;28.78;20.40;99239.56;5073799;28;20035;-53
2021/05/11 04:31:46;;;;;;;1.00;0.95;;;;;;;28.64;20.35;99237.06;5073839;28;20028;-54
2021/05/11 04:34:12;;;;;;;1.10;1.00;;;;;;;28.50;20.41;99242.94;5073563;28;20033;-53
2021/05/11 04:36:37;;;;;;;3.65;1.02;;;;;;;28.44;20.44;99241.50;5073450;28;20036;-53
2021/05/11 04:39:05;;;;;;;0.50;0.50;;;;;;;28.43;20.44;99235.03;5073772;28;20123;-53
2021/05/11 04:41:31;;;;;;;0.68;0.68;;;;;;;28.34;20.10;99228.59;5073355;28;20048;-53
2021/05/11 04:44:00;;;;;;;0.40;0.40;;;;;;;28.25;20.37;99239.13;5073452;28;20033;-54
2021/05/11 04:46:27;;;;;;;0.90;0.90;;;;;;;28.27;20.18;99243.28;5073017;28;20055;-53
2021/05/11 04:48:54;;;;;;;0.75;0.70;;;;;;;28.36;19.89;99242.38;5073380;28;20024;-51
2021/05/11 04:51:21;;;;;;;0.45;0.45;;;;;;;28.35;20.04;99238.72;5073390;28;20500;-53
2021/05/11 04:53:49;;;;;;;2.90;1.63;;;;;;;28.27;20.05;99236.81;5073746;28;20145;-53
2021/05/11 04:56:15;;;;;;;0.70;0.70;;;;;;;28.12;20.01;99246.69;5055167;28;20046;-54
2021/05/11 04:58:41;;;;;;;0.70;0.70;;;;;;;27.98;20.62;99246.13;5073906;28;20036;-54
2021/05/11 05:01:07;;;;;;;2.97;1.20;;;;;;;27.86;20.39;99242.00;5073164;28;20033;-54
2021/05/11 05:03:38;;;;;;;1.05;0.93;;;;;;;27.76;20.39;99240.38;5073283;28;20055;-54
2021/05/11 05:06:05;;;;;;;1.08;0.35;;;;;;;27.69;20.38;99245.72;5072946;28;20039;-55
2021/05/11 05:08:30;;;;;;;1.52;1.30;;;;;;;27.70;20.56;99252.22;5072907;28;20047;-55
2021/05/11 05:10:56;;;;;;;0.40;0.40;;;;;;;27.75;20.39;99254.84;5073430;28;20398;-55
2021/05/11 05:13:24;;;;;;;1.25;1.15;;;;;;;27.79;20.38;99247.34;5073449;28;20029;-54
2021/05/11 05:15:57;;;;;;;1.58;0.98;;;;;;;27.75;20.46;99243.56;5072758;28;20032;-54
2021/05/11 05:18:23;;;;;;;0.85;0.68;;;;;;;27.66;20.23;99249.22;5072753;28;20136;-54
2021/05/11 05:20:51;;;;;;;1.40;0.88;;;;;;;27.57;20.34;99246.44;5073329;28;20433;-53
2021/05/11 05:23:19;;;;;;;0.45;0.45;;;;;;;27.51;20.53;99247.81;5072674;28;20029;-53
2021/05/11 05:25:56;;;;;;;0.60;0.60;;;;;;;27.49;20.18;99244.50;5072611;28;20379;-53
2021/05/11 05:28:22;;;;;;;0.85;0.85;;;;;;;27.43;20.24;99255.13;5073289;28;20041;-53
2021/05/11 05:30:47;;;;;;;0.70;0.70;;;;;;;27.41;20.24;99251.00;5072860;28;20055;-53
2021/05/11 05:33:13;;;;;;;0.35;0.35;;;;;;;27.34;20.63;99253.50;5072899;28;20036;-54
2021/05/11 05:35:39;;;;;;;0.50;0.50;;;;;;;27.31;20.59;99254.16;5072455;28;20409;-53
2021/05/11 05:38:05;;;;;;;1.10;0.80;;;;;;;27.28;20.60;99250.84;5073194;28;20548;-53
2021/05/11 05:40:34;;;;;;;1.23;1.13;;;;;;;27.27;20.58;99257.63;5072790;28;20119;-53
2021/05/11 05:42:59;;;;;;;0.40;0.40;;;;;;;27.23;20.55;99255.84;5072838;28;20020;-54
2021/05/11 05:45:26;;;;;;;0.60;0.60;;;;;;;27.25;20.54;99256.31;5072583;28;20070;-54
2021/05/11 05:47:51;;;;;;;0.30;0.30;;;;;;;27.27;20.25;99252.00;5072844;28;20044;-54
2021/05/11 05:50:22;;;;;;;0.95;0.50;;;;;;;27.31;20.55;99240.91;5054605;28;20033;-53
2021/05/11 05:52:52;;;;;;;0.50;0.50;;;;;;;27.35;20.17;99257.97;5072525;28;20119;-54
2021/05/11 05:55:18;;;;;;;3.22;1.38;;;;;;;27.35;20.37;99252.34;5072687;28;20119;-54
2021/05/11 05:57:43;;;;;;;1.13;1.02;;;;;;;27.41;20.49;99256.63;5072590;28;20139;-53
2021/05/11 06:00:12;;;;;;;0.70;0.63;;;;;;;27.47;20.46;99248.81;5072755;28;20025;-53
2021/05/11 06:02:43;;;;;;;1.25;0.65;;;;;;;27.48;20.33;99254.13;5072199;28;20044;-52
2021/05/11 06:05:14;;;;;;;0.50;0.50;;;;;;;27.48;20.17;99244.84;5072243;28;20029;-53
2021/05/11 06:07:40;;;;;;;2.95;0.98;;;;;;;27.42;20.46;99245.00;5072467;28;20078;-56
2021/05/11 06:10:11;;;;;;;0.60;0.60;;;;;;;27.36;20.50;99245.56;5072584;28;20032;-53
2021/05/11 06:12:48;;;;;;;1.08;0.75;;;;;;;27.35;20.09;99236.25;5054706;28;20056;-54
2021/05/11 06:17:58;;;;;;;0.43;0.43;;;;;;;27.36;20.53;99243.56;5072456;28;20500;-53
2021/05/11 06:20:24;;;;;;;2.20;0.63;;;;;;;27.38;20.49;99246.03;5072389;28;20033;-53
2021/05/11 06:22:50;;;;;;;0.70;0.63;;;;;;;27.34;20.34;99253.50;5072246;28;20486;-54
2021/05/11 06:25:16;;;;;;;1.20;1.10;;;;;;;27.28;20.46;99247.19;5072121;28;20029;-54
2021/05/11 06:27:41;;;;;;;0.75;0.75;;;;;;;27.25;20.48;99243.06;5073084;28;20035;-54
2021/05/11 06:30:08;;;;;;;0.52;0.52;;;;;;;27.22;20.13;99237.25;5057827;28;20067;-54
2021/05/11 06:32:34;;;;;;;1.02;0.73;;;;;;;27.25;20.08;99240.25;5076130;28;20111;-55
2021/05/11 06:35:05;;;;;;;4.18;0.75;;;;;;;27.34;20.45;99242.22;5076466;28;20394;-55
2021/05/11 06:37:31;;;;;;;0.43;0.43;;;;;;;27.32;20.03;99245.34;5075794;28;20090;-55
2021/05/11 06:39:58;;;;;;;0.65;0.50;;;;;;;27.28;19.98;99244.38;5075281;28;20490;-55
2021/05/11 06:42:25;;;;;;;0.75;0.60;;;;;;;27.28;20.33;99236.75;5075645;28;20086;-54
2021/05/11 06:45:22;;;;;;;1.38;1.17;;;;;;;27.30;20.02;99244.88;5075354;28;20033;-54
2021/05/11 06:53:40;;;;;;;0.77;0.77;;;;;;;27.35;20.16;99241.06;5053658;28;20049;-55
2021/05/11 06:56:08;;;;;;;0.68;0.68;;;;;;;27.38;20.25;99243.22;5053963;28;20522;-55
2021/05/11 06:58:34;;;;;;;1.00;1.00;;;;;;;27.45;20.31;99246.34;5053275;28;20036;-55
2021/05/11 07:01:00;;;;;;;0.30;0.30;;;;;;;27.47;20.29;99252.47;5053679;28;20036;-57
2021/05/11 07:03:26;;;;;;;0.55;0.55;;;;;;;27.45;20.18;99243.53;5053633;28;20106;-55
2021/05/11 07:05:53;;;;;;;1.20;0.47;;;;;;;27.44;20.17;99241.84;5053143;28;20037;-54
2021/05/11 07:08:28;;;;;;;0.28;0.28;;;;;;;27.46;19.97;99242.38;5053135;28;20032;-55
2021/05/11 07:10:58;;;;;;;0.70;0.70;;;;;;;27.47;20.25;99240.38;5053224;28;20083;-55
2021/05/11 07:13:23;;;;;;;0.70;0.70;;;;;;;27.48;19.90;99240.03;5052978;28;20135;-55
2021/05/11 07:15:50;;;;;;;1.67;1.20;;;;;;;27.50;20.31;99239.69;5053528;28;20112;-55
2021/05/11 07:18:17;;;;;;;1.05;1.00;;;;;;;27.50;19.91;99232.03;5053738;28;20045;-54
2021/05/11 07:20:48;;;;;;;0.30;0.30;;;;;;;27.44;20.09;99231.44;5037121;28;20390;-54
2021/05/11 07:23:20;;;;;;;0.50;0.50;;;;;;;27.46;20.01;99231.09;5052968;28;20037;-54
2021/05/11 07:25:56;;;;;;;0.40;0.40;;;;;;;27.48;20.01;99228.75;5036163;28;20123;-54
2021/05/11 07:31:01;;;;;;;0.93;0.85;;;;;;;27.49;20.04;99221.94;5066879;28;20039;-56
2021/05/11 07:33:32;;;;;;;1.00;1.00;;;;;;;27.52;20.36;99226.09;5074590;28;20033;-55
2021/05/11 07:35:58;;;;;;;0.60;0.60;;;;;;;27.60;19.95;99223.19;5075471;28;20174;-55
2021/05/11 07:38:25;;;;;;;1.30;1.08;;;;;;;27.70;19.91;99230.47;5074628;28;20105;-55
2021/05/11 07:40:55;;;;;;;0.93;0.85;;;;;;;27.78;20.30;99220.28;5073588;28;20040;-56
2021/05/11 07:43:23;;;;;;;0.45;0.45;;;;;;;27.82;19.83;99212.81;5077199;28;20097;-56
2021/05/11 08:28:52;;;;;;;0.55;0.55;;;;;;;28.11;20.26;99203.53;5068559;28;20090;-56
2021/05/11 08:31:18;;;;;;;0.90;0.90;;;;;;;28.10;20.15;99209.53;5052481;28;20037;-57
2021/05/11 08:33:44;;;;;;;1.38;0.95;;;;;;;28.11;20.73;99222.47;5048764;28;20095;-56
2021/05/11 08:36:11;;;;;;;0.30;0.30;;;;;;;28.13;20.18;99211.66;5032194;28;20054;-57
2021/05/11 08:38:36;;;;;;;0.80;0.80;;;;;;;28.11;20.38;99211.19;5065083;28;20048;-55
2021/05/11 08:41:02;;;;;;;0.77;0.68;;;;;;;28.09;20.33;99207.84;5051409;28;20102;-55
2021/05/11 08:43:37;;;;;;;0.40;0.40;;;;;;;28.09;20.57;99216.31;5058121;28;20025;-55
2021/05/11 08:46:08;;;;;;;0.38;0.35;;;;;;;28.07;20.24;99204.56;5045310;28;20071;-56
2021/05/11 08:48:34;;;;;;;1.17;1.15;;;;;;;28.04;20.45;99202.44;5049705;28;20025;-55
2021/05/11 09:04:49;;;;;;;0.85;0.80;;;;;;;27.84;20.36;99190.75;5089245;28;20043;-56
2021/05/11 09:24:19;;;;;;;0.63;0.57;;;;;;;28.18;19.92;99194.53;5080749;28;20075;-54
2021/05/11 09:29:30;;;;;;;0.50;0.50;;;;;;;28.28;19.86;99194.13;5085867;28;20035;-57
2021/05/11 09:32:13;;;;;;;0.38;0.38;;;;;;;28.27;19.68;99197.28;5089211;28;20031;-54
2021/05/11 10:46:47;;;;;;;1.45;0.82;;;;;;;27.93;19.66;99166.09;5000851;28;20539;-56
2021/05/11 10:49:28;;;;;;;0.75;0.73;;;;;;;27.90;19.72;99157.47;5009543;28;20157;-55
2021/05/11 10:52:12;;;;;;;0.52;0.52;;;;;;;27.90;20.04;99158.34;5009128;28;20033;-55
2021/05/11 10:54:55;;;;;;;0.95;0.43;;;;;;;27.89;19.60;99150.22;5010976;28;20030;-55
2021/05/11 10:57:53;;;;;;;0.90;0.65;;;;;;;27.86;19.61;99151.72;5010869;28;20095;-57
2021/05/11 11:03:17;;;;;;;0.40;0.40;;;;;;;27.86;19.82;99146.06;5013066;28;20030;-57
2021/05/11 11:06:02;;;;;;;1.17;1.10;;;;;;;27.83;20.04;99141.13;5012888;28;20472;-56
2021/05/11 11:08:31;;;;;;;0.40;0.40;;;;;;;27.80;19.83;99144.63;5011046;28;20029;-57
2021/05/11 11:11:20;;;;;;;3.60;1.58;;;;;;;27.78;19.68;99146.94;5012963;28;20072;-59
2021/05/11 11:13:54;;;;;;;0.98;0.98;;;;;;;27.78;20.03;99152.59;5053761;28;20036;-56
2021/05/11 11:16:21;;;;;;;0.60;0.60;;;;;;;27.77;19.66;99145.31;5067921;28;20029;-57
2021/05/11 11:18:48;;;;;;;0.50;0.38;;;;;;;27.77;19.82;99142.50;5068566;28;20071;-57
2021/05/11 11:23:53;;;;;;;0.88;0.70;;;;;;;27.70;19.76;99145.84;5071604;28;20052;-57
2021/05/11 11:26:43;;;;;;;0.70;0.70;;;;;;;27.68;19.72;99147.34;5066232;28;20089;-57
2021/05/11 11:29:12;;;;;;;0.30;0.30;;;;;;;27.65;20.02;99143.22;5070632;28;20063;-57
2021/05/11 11:31:44;;;;;;;0.63;0.55;;;;;;;27.62;19.89;99147.56;5064626;28;20070;-57
2021/05/11 11:34:25;;;;;;;1.08;0.82;;;;;;;27.60;19.86;99152.69;5068888;28;20550;-57
2021/05/11 11:37:00;;;;;;;0.50;0.50;;;;;;;27.58;20.23;99149.41;5069389;28;20494;-57
2021/05/11 11:39:31;;;;;;;2.28;0.52;;;;;;;27.55;20.06;99152.09;5070755;28;20082;-56
2021/05/11 11:42:00;;;;;;;0.40;0.40;;;;;;;27.54;19.93;99153.25;5070887;28;20123;-57
2021/05/11 11:44:30;;;;;;;1.02;0.60;;;;;;;27.53;20.23;99151.56;5070540;28;20379;-58
2021/05/11 11:47:09;;;;;;;0.50;0.25;;;;;;;27.53;20.08;99157.22;5068687;28;20045;-56
2021/05/11 11:49:38;;;;;;;0.45;0.45;;;;;;;27.52;19.91;99153.59;5069591;28;20028;-57
2021/05/11 11:52:13;;;;;;;0.60;0.60;;;;;;;27.51;20.16;99151.91;5066656;28;20058;-57
2021/05/11 12:00:10;;;;;;;1.00;0.57;;;;;;;27.38;20.29;99144.53;5068515;28;20036;-57
2021/05/11 12:02:37;;;;;;;0.20;0.20;;;;;;;27.36;20.01;99153.31;5068938;28;20040;-57
2021/05/11 12:05:13;;;;;;;1.48;0.95;;;;;;;27.36;20.02;99150.50;5070465;28;20123;-59
2021/05/11 12:10:25;;;;;;;0.52;0.52;;;;;;;27.36;19.97;99147.69;5069767;28;20520;-56
2021/05/11 12:12:52;;;;;;;0.40;0.40;;;;;;;27.37;20.25;99156.97;5067531;28;20616;-56
2021/05/11 12:15:20;;;;;;;0.50;0.50;;;;;;;27.35;20.11;99145.22;5068984;28;20051;-55
2021/05/11 12:18:16;;;;;;;0.65;0.65;;;;;;;27.33;20.10;99141.88;5070442;28;20074;-57
2021/05/11 12:20:43;;;;;;;1.08;0.85;;;;;;;27.31;20.17;99139.41;5068516;28;20493;-56
2021/05/11 12:23:09;;;;;;;0.55;0.40;;;;;;;27.30;20.47;99140.56;5067701;28;20027;-56
2021/05/11 12:25:37;;;;;;;0.47;0.47;;;;;;;27.31;20.40;99132.91;5068889;28;20029;-57
2021/05/11 12:28:03;;;;;;;0.82;0.68;;;;;;;27.35;20.29;99145.22;5067305;28;20035;-56
2021/05/11 12:30:42;;;;;;;1.70;1.25;;;;;;;27.42;20.09;99140.69;5068583;28;20393;-56
2021/05/11 12:33:12;;;;;;;0.75;0.60;;;;;;;27.47;20.22;99133.19;5067754;28;20032;-57
2021/05/11 12:35:43;;;;;;;2.17;0.70;;;;;;;27.44;20.24;99143.16;5056304;28;20102;-56
2021/05/11 12:38:20;;;;;;;0.38;0.38;;;;;;;27.42;20.21;99128.59;5069414;28;20081;-56
2021/05/11 12:41:09;;;;;;;0.40;0.40;;;;;;;27.44;20.40;99134.69;5069446;28;20465;-55
2021/05/11 12:43:49;;;;;;;0.15;0.15;;;;;;;27.42;20.20;99134.22;5067447;28;20090;-58
2021/05/11 12:46:31;;;;;;;0.30;0.30;;;;;;;27.39;20.30;99129.28;5082874;28;20055;-57
2021/05/11 12:49:16;;;;;;;0.25;0.25;;;;;;;27.38;20.56;99121.97;5090512;28;20082;-56
2021/05/11 12:51:44;;;;;;;0.20;0.20;;;;;;;27.36;20.26;99127.94;5089760;28;20123;-57
2021/05/11 12:54:46;;;;;;;1.00;0.40;;;;;;;27.37;20.62;99117.50;5087972;28;20032;-57
2021/05/11 12:57:31;;;;;;;0.50;0.50;;;;;;;27.36;20.66;99133.59;5069950;28;20024;-56
2021/05/11 13:00:06;;;;;;;0.60;0.60;;;;;;;27.35;20.31;99134.75;5087389;28;20039;-57
2021/05/11 13:27:28;;;;;;;0.30;0.30;;;;;;;26.73;20.88;99120.03;5088079;28;20515;-55
2021/05/11 13:35:01;;;;;;;0.65;0.32;;;;;;;26.74;21.30;99120.88;5088941;28;20046;-48
2021/05/11 13:37:28;;;;;;;0.30;0.30;;;;;;;26.74;20.99;99124.50;5088335;28;20031;-55
2021/05/11 13:39:58;;;;;;;0.75;0.75;;;;;;;26.73;21.06;99119.22;5070976;28;20030;-55
2021/05/11 13:42:25;;;;;;;0.55;0.55;;;;;;;26.73;21.18;99124.84;5089068;28;20032;-49
2021/05/11 13:44:54;;;;;;;1.10;0.45;;;;;;;26.71;21.15;99125.19;5070091;28;20032;-55
2021/05/11 13:47:23;;;;;;;2.05;1.13;;;;;;;26.72;21.46;99134.44;5088187;28;20088;-55
2021/05/11 13:49:57;;;;;;;1.23;0.32;;;;;;;26.72;21.57;99128.81;5085801;28;20098;-56
2021/05/11 13:52:23;;;;;;;0.37;0.33;;;;;;;26.73;21.35;99138.94;5088477;28;20032;-54
2021/05/11 13:54:52;;;;;;;0.30;0.30;;;;;;;26.74;21.77;99140.59;5087236;28;20431;-51
2021/05/11 14:05:13;;;;;;;5.78;0.38;;;;;;;26.79;21.77;99140.41;5089871;28;20036;-52
2021/05/11 14:07:38;;;;;;;0.60;0.60;;;;;;;26.81;21.61;99142.88;5090093;28;20040;-54
2021/05/11 14:10:08;;;;;;;0.95;0.85;;;;;;;26.82;21.93;99144.53;5071460;28;20446;-55
2021/05/11 14:12:34;;;;;;;0.47;0.32;;;;;;;26.83;21.64;99147.03;5090038;28;20409;-50
2021/05/11 14:15:02;;;;;;;0.57;0.57;;;;;;;26.85;22.04;99143.88;5089622;28;20028;-56
2021/05/11 14:17:28;;;;;;;1.08;0.73;;;;;;;26.86;21.99;99145.53;5072148;28;20036;-57
2021/05/11 14:19:54;;;;;;;0.40;0.40;;;;;;;26.88;21.83;99148.81;5089980;28;20035;-56
2021/05/11 14:22:20;;;;;;;0.28;0.28;;;;;;;26.88;21.90;99144.03;5089669;28;20036;-55
2021/05/11 14:24:49;;;;;;;0.35;0.35;;;;;;;26.89;22.05;99145.69;5089829;28;20036;-57
2021/05/11 14:27:16;;;;;;;0.82;0.20;;;;;;;26.85;22.12;99141.06;5089440;28;20036;-56
2021/05/11 14:29:44;;;;;;;1.05;0.63;;;;;;;26.80;22.24;99139.25;5071402;28;20043;-57
2021/05/11 14:32:11;;;;;;;0.40;0.40;;;;;;;26.74;22.17;99132.16;5071950;28;20069;-55
2021/05/11 14:34:36;;;;;;;1.50;0.73;;;;;;;26.69;22.11;99135.97;5071320;28;20043;-51
2021/05/11 14:37:02;;;;;;;0.20;0.20;;;;;;;26.67;22.34;99134.59;5089740;28;20032;-53
2021/05/11 14:39:28;;;;;;;0.93;0.80;;;;;;;26.63;22.23;99145.69;5089226;28;20036;-49
2021/05/11 14:41:54;;;;;;;0.30;0.30;;;;;;;26.60;22.51;99139.91;5089545;28;20039;-53
2021/05/11 14:44:27;;;;;;;0.43;0.32;;;;;;;26.56;22.54;99132.16;5089967;28;20039;-49
2021/05/11 14:46:55;;;;;;;0.10;0.10;;;;;;;26.51;22.44;99134.31;5088864;28;20420;-54
2021/05/11 14:49:25;;;;;;;0.20;0.20;;;;;;;26.47;22.36;99139.78;5090341;28;20575;-54
2021/05/11 14:51:50;;;;;;;0.20;0.20;;;;;;;26.43;22.36;99141.59;5093924;28;20090;-46
2021/05/11 14:54:16;;;;;;;0.20;0.20;;;;;;;26.40;22.70;99145.09;5092640;28;20562;-50
2021/05/11 14:56:42;;;;;;;0.47;0.47;;;;;;;26.36;22.82;99142.09;5072692;28;20047;-49
2021/05/11 14:59:10;;;;;;;0.20;0.20;;;;;;;26.36;22.66;99146.91;5092918;28;20114;-52
2021/05/11 15:01:36;;;;;;;0.47;0.47;;;;;;;26.36;22.85;99144.09;5074438;28;20034;-51
2021/05/11 15:04:02;;;;;;;0.60;0.60;;;;;;;26.36;22.61;99147.72;5075051;28;20036;-50
2021/05/11 15:06:28;;;;;;;0.25;0.25;;;;;;;26.32;22.80;99143.09;5092605;28;20031;-53
2021/05/11 15:08:54;;;;;;;0.30;0.30;;;;;;;26.29;22.49;99155.03;5093232;28;20096;-50
2021/05/11 15:11:21;;;;;;;0.25;0.17;;;;;;;26.25;22.99;99137.13;5092617;28;20028;-49
2021/05/11 15:13:49;;;;;;;0.13;0.13;;;;;;;26.21;22.87;99153.88;5092732;28;20122;-50
2021/05/11 15:16:22;;;;;;;0.00;0.00;;;;;;;26.17;22.83;99150.88;5092951;28;20489;-53
2021/05/11 15:18:49;;;;;;;0.22;0.22;;;;;;;26.12;22.60;99156.69;5092108;28;20040;-51
2021/05/11 15:21:16;;;;;;;0.17;0.10;;;;;;;26.10;23.24;99153.34;5091246;28;20032;-48
2021/05/11 15:23:43;;;;;;;0.40;0.40;;;;;;;26.06;22.83;99152.38;5090370;28;20054;-54
2021/05/11 15:26:12;;;;;;;0.00;0.00;;;;;;;26.05;23.15;99147.91;5090834;28;20035;-55
2021/05/11 15:28:39;;;;;;;0.17;0.17;;;;;;;26.02;22.88;99152.19;5092190;28;20122;-57
2021/05/11 15:31:05;;;;;;;0.75;0.52;;;;;;;25.99;22.88;99152.84;5074538;28;20028;-53
2021/05/11 15:33:31;;;;;;;0.30;0.20;;;;;;;25.97;22.94;99152.34;5092266;28;20064;-54
2021/05/11 15:35:58;;;;;;;0.30;0.22;;;;;;;25.98;22.89;99155.97;5092659;28;20130;-50
2021/05/11 15:38:28;;;;;;;0.70;0.47;;;;;;;25.99;22.88;99150.03;5092307;28;20495;-51
2021/05/11 15:40:55;;;;;;;0.20;0.20;;;;;;;26.00;23.30;99160.16;5092002;28;20085;-52
2021/05/11 15:43:21;;;;;;;8.30;0.52;;;;;;;26.01;23.19;99160.97;5092570;28;20201;-53
2021/05/11 15:45:47;;;;;;;0.17;0.17;;;;;;;26.02;23.44;99165.44;5091458;28;20048;-53
2021/05/11 15:48:13;;;;;;;0.10;0.10;;;;;;;26.02;23.07;99157.00;5074077;28;20036;-51
2021/05/11 15:50:41;;;;;;;0.85;0.28;;;;;;;26.02;23.35;99162.63;5091735;28;20467;-53
2021/05/11 15:53:09;;;;;;;0.45;0.25;;;;;;;26.02;23.27;99162.63;5091471;28;20024;-51
2021/05/11 15:55:40;;;;;;;0.10;0.10;;;;;;;26.01;23.57;99156.16;5092212;28;20169;-50
2021/05/11 15:58:11;;;;;;;0.15;0.15;;;;;;;25.99;23.29;99149.19;5092030;28;20075;-52
2021/05/11 16:00:39;;;;;;;0.17;0.17;;;;;;;25.95;23.42;99151.81;5073181;28;20036;-53
2021/05/11 16:03:06;;;;;;;0.45;0.30;;;;;;;25.92;23.63;99157.28;5073396;28;20032;-53
2021/05/11 16:05:37;;;;;;;0.25;0.15;;;;;;;25.89;24.07;99153.16;5073624;28;20039;-53
2021/05/11 16:08:07;;;;;;;0.10;0.10;;;;;;;25.88;24.05;99154.28;5091351;28;20497;-54
2021/05/11 16:10:34;;;;;;;1.65;0.32;;;;;;;25.87;23.75;99167.53;5073166;28;20032;-55
2021/05/11 16:13:00;;;;;;;0.55;0.52;;;;;;;25.87;24.08;99166.72;5073630;28;20089;-50
2021/05/11 16:15:27;;;;;;;0.10;0.10;;;;;;;25.86;24.43;99163.06;5091330;28;20036;-56
2021/05/11 16:17:55;;;;;;;0.22;0.22;;;;;;;25.86;24.05;99168.69;5091513;28;20109;-53